Latest Weather Observations for Launceston Airport

IDT60801

Issued at 1:31 pm EST Friday 29 July 2016 (issued every 30 minutes, with the page automatically refreshed every 10 minutes)

About weather observations | Map of weather stations | Latest weather observations for TAS | Other Formats
Station Details ID: 091311 Name: LAUNCESTON AIRPORT Lat: -41.55 Lon: 147.21 Height: 166.9 m
Data from the previous 72 hours. | See also: Recent months at Launceston Airport
Date/Time
EST
Temp
°C
App
Temp
°C
Dew
Point
°C
Rel
Hum
%
Delta-T
°C
Wind Press
QNH
hPa
Press
MSL
hPa
Rain since
9am
mm
Dir  Spd
km/h
Gust
km/h
Spd
kts
Gust
kts
29/01:30pm 12.6 5.7 4.6 58 3.7 NW 30 46 16 25 1008.1 1008.5 0.0
29/01:00pm 12.0 5.3 7.3 73 2.3 NNW 32 39 17 21 1008.0 1008.4 0.0
29/12:30pm 12.2 5.9 7.5 73 2.3 NNW 30 37 16 20 1008.3 1008.7 0.0
29/12:00pm 11.6 5.1 6.5 71 2.4 NNW 30 39 16 21 1008.6 1009.0 0.0
29/11:30am 12.5 5.7 7.0 69 2.7 NNW 32 41 17 22 1009.0 1009.4 0.0
29/11:00am 12.0 5.9 6.7 70 2.6 NNW 28 39 15 21 1009.5 1009.9 0.0
29/10:30am 11.4 3.9 6.1 70 2.5 NNW 35 46 19 25 1009.8 1010.2 0.0
29/10:00am 10.7 3.7 6.1 73 2.2 NNW 32 43 17 23 1009.9 1010.3 0.0
29/09:30am 10.3 3.4 6.3 76 1.9 NNW 32 39 17 21 1010.0 1010.4 0.0
29/09:00am 9.7 2.6 6.2 79 1.6 NNW 33 39 18 21 1009.9 1010.3 0.0
29/08:30am 8.7 2.0 5.8 82 1.3 NNW 30 37 16 20 1009.9 1010.3 0.0
29/08:00am 7.8 2.2 5.4 85 1.1 NNW 24 28 13 15 1010.2 1010.6 0.0
29/07:30am 7.1 2.2 4.9 86 1.0 NNW 20 26 11 14 1010.3 1010.7 0.0
29/07:00am 7.1 2.1 4.8 85 1.0 NNW 20 24 11 13 1010.2 1010.6 0.0
29/06:30am 7.1 2.3 4.9 86 1.0 NNW 19 22 10 12 1010.2 1010.6 0.0
29/06:00am 7.2 1.5 5.0 86 1.0 NNW 24 30 13 16 1010.4 1010.8 0.0
29/05:30am 7.6 2.0 5.6 87 0.9 NNW 24 32 13 17 1010.4 1010.8 0.0
29/05:00am 7.7 1.8 5.7 87 0.9 NNW 26 33 14 18 1010.5 1010.9 0.0
29/04:32am 7.6 2.0 5.6 87 0.9 NNW 24 33 13 18 1010.5 1010.9 0.0
29/04:30am 7.6 1.7 5.6 87 0.9 NNW 26 32 14 17 1010.6 1011.0 0.0
29/04:11am 7.9 1.7 6.0 88 0.9 NNW 28 35 15 19 1010.5 1010.9 0.0
29/04:00am 7.7 1.8 5.7 87 0.9 NNW 26 32 14 17 1010.5 1010.9 0.0
29/03:30am 7.6 2.4 5.7 88 0.9 NNW 22 32 12 17 1011.1 1011.5 0.0
29/03:00am 7.6 2.0 5.4 86 1.0 NNW 24 32 13 17 1011.3 1011.7 0.0
29/02:30am 8.1 2.9 5.7 85 1.1 NNW 22 30 12 16 1011.7 1012.1 0.0
29/02:00am 8.0 2.9 5.8 86 1.0 N 22 28 12 15 1011.8 1012.3 0.0
29/01:30am 7.6 2.0 5.6 87 0.9 N 24 32 13 17 1012.1 1012.5 0.0
29/01:00am 6.8 1.5 5.0 88 0.8 NNW 22 28 12 15 1012.4 1012.8 0.0
29/12:30am 6.2 1.3 3.9 85 1.0 NNW 19 22 10 12 1012.6 1013.0 0.0
29/12:00am 6.2 1.0 3.4 82 1.2 NNW 20 26 11 14 1012.9 1013.3 0.0
 
Date/Time
EST
Temp
°C
App
Temp
°C
Dew
Point
°C
Rel
Hum
%
Delta-T
°C
Wind Press
QNH
hPa
Press
MSL
hPa
Rain since
9am
mm
Dir  Spd
km/h
Gust
km/h
Spd
kts
Gust
kts
28/11:30pm 6.2 0.9 3.0 80 1.3 NNW 20 24 11 13 1013.0 1013.4 0.0
28/11:00pm 6.7 0.7 3.3 79 1.4 NNW 24 30 13 16 1013.1 1013.5 0.0
28/10:30pm 6.7 0.8 3.9 82 1.2 NNW 24 28 13 15 1013.3 1013.7 0.0
28/10:00pm 6.9 1.1 4.2 83 1.2 NNW 24 30 13 16 1013.3 1013.7 0.0
28/09:30pm 6.8 1.8 4.6 86 1.0 NNW 20 26 11 14 1013.7 1014.1 0.0
28/09:00pm 6.9 2.0 4.9 87 0.9 N 20 24 11 13 1013.4 1013.8 0.0
28/08:30pm 7.2 1.3 4.0 80 1.4 NNW 24 32 13 17 1013.4 1013.8 0.0
28/08:00pm 7.2 2.1 3.3 76 1.7 NNW 19 24 10 13 1013.4 1013.8 0.0
28/07:30pm 6.6 1.4 2.3 74 1.8 N 19 22 10 12 1013.4 1013.8 0.0
28/07:00pm 7.2 2.4 2.7 73 1.9 NNE 17 22 9 12 1013.2 1013.6 0.0
28/06:30pm 7.7 1.6 2.8 71 2.1 NW 24 28 13 15 1012.9 1013.3 0.0
28/06:00pm 8.5 3.5 3.6 71 2.1 NNW 19 30 10 16 1012.2 1012.6 0.0
28/05:30pm 9.3 3.8 3.9 69 2.4 NW 22 28 12 15 1011.6 1012.0 0.0
28/05:00pm 10.6 4.6 3.6 62 3.1 NNW 24 32 13 17 1011.4 1011.8 0.0
28/04:30pm 11.5 5.2 3.8 59 3.5 NNW 26 33 14 18 1011.2 1011.6 0.0
28/04:00pm 12.2 5.6 4.2 58 3.7 NNW 28 35 15 19 1010.7 1011.1 0.0
28/03:30pm 12.9 6.1 3.3 52 4.3 NW 28 41 15 22 1010.6 1011.0 0.0
28/03:15pm 13.0 4.9 3.4 52 4.3 WNW 35 54 19 29 1010.0 1010.4 0.0
28/03:00pm 13.3 5.3 3.9 53 4.3 WNW 35 46 19 25 1009.7 1010.1 0.0
28/02:30pm 13.8 5.5 4.1 52 4.5 NW 37 54 20 29 1009.9 1010.3 0.0
28/02:21pm 13.8 6.1 3.6 50 4.6 NW 33 52 18 28 1009.8 1010.2 0.0
28/02:00pm 14.0 6.6 4.9 54 4.3 NW 33 46 18 25 1009.9 1010.3 0.0
28/01:30pm 14.0 5.8 4.6 53 4.4 NW 37 44 20 24 1009.8 1010.2 0.0
28/01:00pm 13.8 6.4 4.9 55 4.2 WNW 33 46 18 25 1009.8 1010.2 0.0
28/12:30pm 14.7 7.3 5.2 53 4.5 NW 33 46 18 25 1009.8 1010.2 0.0
28/12:00pm 14.2 7.2 6.1 58 3.9 NW 32 43 17 23 1010.1 1010.5 0.0
28/11:30am 13.4 7.6 7.8 69 2.8 NNW 28 37 15 20 1010.6 1011.0 0.0
28/11:00am 12.8 6.4 7.0 68 2.8 NNW 30 39 16 21 1010.9 1011.3 0.0
28/10:30am 12.0 5.2 7.1 72 2.4 NNW 32 39 17 21 1010.8 1011.2 0.0
28/10:00am 11.5 4.7 6.8 73 2.3 NNW 32 43 17 23 1010.7 1011.1 0.0
28/09:30am 10.9 3.8 6.6 75 2.0 NNW 33 43 18 23 1010.6 1011.0 0.0
28/09:00am 10.1 4.0 6.4 78 1.7 NNW 28 39 15 21 1010.3 1010.7 0.0
28/08:30am 9.1 3.3 6.2 82 1.3 NNW 26 32 14 17 1010.1 1010.5 0.0
28/08:00am 7.6 2.8 5.7 88 0.9 NNW 20 26 11 14 1010.0 1010.4 0.0
28/07:30am 7.2 2.0 5.3 88 0.9 NNW 22 28 12 15 1009.9 1010.3 0.0
28/07:00am 7.2 1.3 5.7 90 0.7 NNW 26 32 14 17 1009.7 1010.1 0.0
28/06:30am 6.8 1.9 5.3 90 0.7 NNW 20 26 11 14 1009.4 1009.8 0.0
28/06:00am 6.3 1.3 4.5 88 0.8 NNW 20 24 11 13 1009.5 1009.9 0.0
28/05:30am 6.4 1.0 4.4 87 0.9 N 22 28 12 15 1009.3 1009.7 0.0
28/05:00am 5.9 0.9 3.6 85 1.0 NNW 19 24 10 13 1009.6 1010.0 0.0
28/04:30am 6.0 1.0 3.5 84 1.1 NNW 19 22 10 12 1009.9 1010.3 0.0
28/04:00am 6.0 1.0 3.5 84 1.1 NNW 19 24 10 13 1010.0 1010.4 0.0
28/03:30am 6.3 0.3 3.5 82 1.2 NNW 24 28 13 15 1010.1 1010.5 0.0
28/03:00am 5.5 0.4 3.0 84 1.0 NNW 19 24 10 13 1010.6 1011.0 0.0
28/02:30am 6.3 1.7 3.8 84 1.1 N 17 24 9 13 1010.7 1011.1 0.0
28/02:00am 5.2 0.5 3.4 88 0.8 N 17 20 9 11 1010.2 1010.6 0.0
28/01:30am 6.4 1.5 3.9 84 1.1 N 19 24 10 13 1009.9 1010.3 0.0
28/01:00am 7.3 2.2 2.8 73 1.9 NNW 19 24 10 13 1009.6 1010.0 0.0
28/12:30am 7.9 2.6 3.0 71 2.1 NW 20 32 11 17 1009.7 1010.1 0.0
28/12:00am 8.2 3.2 3.7 73 2.0 NW 19 26 10 14 1009.7 1010.1 0.0
 
Date/Time
EST
Temp
°C
App
Temp
°C
Dew
Point
°C
Rel
Hum
%
Delta-T
°C
Wind Press
QNH
hPa
Press
MSL
hPa
Rain since
9am
mm
Dir  Spd
km/h
Gust
km/h
Spd
kts
Gust
kts
27/11:30pm 8.0 2.8 3.7 74 1.9 WNW 20 26 11 14 1009.5 1009.9 0.0
27/11:00pm 8.2 2.3 3.7 73 2.0 WNW 24 32 13 17 1009.3 1009.7 0.0
27/10:30pm 8.2 2.8 4.4 77 1.7 WNW 22 32 12 17 1009.0 1009.4 0.0
27/10:00pm 7.8 2.1 4.7 81 1.4 NW 24 35 13 19 1009.0 1009.4 0.0
27/09:30pm 5.8 1.2 3.6 86 0.9 NW 17 20 9 11 1008.9 1009.3 0.0
27/09:00pm 5.0 0.2 2.4 83 1.1 NNW 17 22 9 12 1008.6 1009.0 0.0
27/08:30pm 6.8 0.8 3.6 80 1.4 N 24 30 13 16 1008.4 1008.8 0.0
27/08:00pm 6.6 -0.2 3.0 78 1.5 N 28 37 15 20 1007.6 1008.0 0.0
27/07:30pm 6.9 0.0 2.8 75 1.7 N 28 35 15 19 1007.4 1007.8 0.0
27/07:00pm 7.0 0.5 2.7 74 1.8 N 26 32 14 17 1007.1 1007.5 0.0
27/06:30pm 6.5 -0.1 2.2 74 1.8 N 26 32 14 17 1007.0 1007.4 0.0
27/06:00pm 6.2 -0.1 1.7 73 1.8 N 24 32 13 17 1007.0 1007.4 0.0
27/05:30pm 6.8 0.9 1.9 71 2.0 N 22 30 12 16 1007.0 1007.4 0.0
27/05:00pm 6.6 -0.1 1.5 70 2.1 NNW 26 37 14 20 1006.6 1006.9 0.0
27/04:30pm 7.6 0.5 1.5 65 2.5 NNW 28 35 15 19 1006.2 1006.5 0.0
27/04:01pm 8.5 1.4 1.4 61 2.9 NW 28 46 15 25 1006.9 1007.2 0.0
27/04:00pm 8.5 1.0 1.4 61 2.9 NW 30 46 16 25 1006.8 1007.1 0.0
27/03:42pm 9.0 1.9 1.4 59 3.2 NW 28 46 15 25 1006.4 1006.7 0.0
27/03:30pm 8.5 0.5 1.4 61 2.9 NNW 33 43 18 23 1006.3 1006.6 0.0
27/03:00pm 9.1 0.2 1.0 57 3.3 NW 37 44 20 24 1005.9 1006.2 0.0
27/02:30pm 8.1 0.8 0.3 58 3.1 NW 28 37 15 20 1006.4 1006.7 0.0
27/02:00pm 9.3 1.6 0.0 52 3.8 WNW 30 39 16 21 1006.3 1006.6 0.0
27/01:30pm 8.9 2.1 0.6 56 3.4 NW 26 43 14 23 1006.2 1006.5 0.0
27/01:00pm 9.8 3.8 1.2 55 3.6 NNW 22 35 12 19 1006.2 1006.5 0.0
27/12:30pm 8.8 2.4 1.0 58 3.2 N 24 32 13 17 1006.2 1006.5 0.0
27/12:00pm 9.3 4.0 -0.3 51 3.9 WNW 17 26 9 14 1006.4 1006.7 0.0
27/11:30am 8.5 2.0 -2.1 47 4.0 WSW 22 33 12 18 1006.5 1006.8 0.0
27/11:00am 8.3 2.9 -1.5 50 3.8 W 17 24 9 13 1006.5 1006.8 0.0
27/10:30am 7.7 1.9 -1.3 53 3.5 WNW 19 28 10 15 1005.9 1006.2 0.0
27/10:00am 7.1 3.0 -0.1 60 2.8 N 11 17 6 9 1005.7 1006.0 0.0
27/09:30am 7.0 3.1 -1.2 56 3.1 NNW 9 13 5 7 1005.2 1005.6 0.0
27/09:00am 6.0 2.4 0.6 68 2.1 E 9 13 5 7 1004.9 1005.3 9.6
27/08:30am 4.6 1.4 -0.2 71 1.8 N 6 11 3 6 1004.1 1004.5 9.6
27/08:00am 3.1 -0.7 -0.5 77 1.3 WSW 9 11 5 6 1003.3 1003.7 9.6
27/07:30am 3.4 -1.6 -1.0 73 1.6 S 15 20 8 11 1003.0 1003.4 9.6
27/07:00am 5.0 -1.5 0.6 73 1.7 SSW 24 30 13 16 1002.1 1002.5 9.6
27/06:30am 4.0 0.5 3.3 95 0.3 SSW 11 15 6 8 1001.3 1001.6 9.6
27/06:00am 5.3 1.6 4.7 96 0.3 S 13 20 7 11 1000.7 1001.0 9.6
27/05:30am 5.6 0.7 5.0 96 0.3 NNW 20 24 11 13 999.6 999.9 9.6
27/05:00am 5.4 0.6 4.8 96 0.3 NW 19 22 10 12 998.6 999.0 9.6
27/04:55am 5.3 0.5 4.7 96 0.3 NW 19 24 10 13 998.5 998.9 9.6
27/04:30am 5.7 0.0 5.0 95 0.3 NNW 24 30 13 16 997.9 998.3 9.6
27/04:00am 5.8 0.9 5.2 96 0.3 NNW 20 24 11 13 997.8 998.2 9.6
27/03:36am 5.5 0.7 4.8 95 0.3 NNW 19 24 10 13 997.6 998.0 9.6
27/03:30am 5.5 0.5 4.8 95 0.3 N 20 26 11 14 997.5 997.9 9.6
27/03:24am 5.4 0.4 4.7 95 0.3 N 20 26 11 14 997.3 997.7 9.6
27/03:00am 5.4 0.4 4.7 95 0.3 NNW 20 26 11 14 997.7 998.1 9.6
27/02:30am 5.5 0.2 4.8 95 0.3 N 22 28 12 15 998.1 998.5 9.6
27/02:21am 5.4 0.4 4.7 95 0.3 N 20 28 11 15 998.1 998.5 9.6
27/02:00am 5.3 0.3 4.6 95 0.3 N 20 26 11 14 998.0 998.4 9.6
27/01:30am 5.2 -1.0 4.3 94 0.4 N 26 33 14 18 997.9 998.3 9.6
27/01:25am 5.2 -1.0 4.2 93 0.4 N 26 33 14 18 998.1 998.5 9.6
27/01:24am 5.3 -0.9 4.3 93 0.4 N 26 33 14 18 998.1 998.5 9.6
27/01:14am 5.1 -2.0 3.6 90 0.6 NNW 30 43 16 23 998.4 998.8 9.4
27/01:12am 5.2 -1.9 3.7 90 0.6 NNW 30 43 16 23 998.3 998.7 9.4
27/01:06am 5.2 -2.3 3.4 88 0.8 NW 32 43 17 23 998.4 998.8 8.8
27/01:00am 5.2 -1.5 3.7 90 0.6 NNW 28 41 15 22 998.5 998.9 8.2
27/12:59am 5.2 -1.1 3.7 90 0.6 NNW 26 41 14 22 998.5 998.9 8.2
27/12:51am 5.2 -0.3 4.0 92 0.5 NNW 22 32 12 17 998.6 999.0 7.4
27/12:33am 5.3 -0.5 4.3 93 0.4 NNW 24 32 13 17 998.9 999.3 5.4
27/12:30am 5.3 -0.9 4.3 93 0.4 NNW 26 32 14 17 998.9 999.3 5.0
27/12:20am 5.3 -0.8 4.6 95 0.3 NNW 26 35 14 19 998.8 999.2 4.2
27/12:00am 5.5 -1.0 4.9 96 0.3 NNW 28 33 15 18 999.2 999.6 3.0
 
Date/Time
EST
Temp
°C
App
Temp
°C
Dew
Point
°C
Rel
Hum
%
Delta-T
°C
Wind Press
QNH
hPa
Press
MSL
hPa
Rain since
9am
mm
Dir  Spd
km/h
Gust
km/h
Spd
kts
Gust
kts
26/11:30pm 5.4 -0.3 4.8 96 0.3 NNW 24 32 13 17 999.6 999.9 1.8
26/11:00pm 5.3 -0.4 4.7 96 0.3 N 24 30 13 16 999.5 999.8 1.8
26/10:31pm 5.3 -0.1 4.6 95 0.3 NNW 22 30 12 16 1000.0 1000.3 1.2
26/10:30pm 5.3 -0.1 4.6 95 0.3 NNW 22 30 12 16 1000.1 1000.4 1.0
26/10:21pm 5.3 -0.5 4.4 94 0.4 N 24 30 13 16 1000.1 1000.4 1.0
26/10:00pm 5.2 -0.2 4.3 94 0.4 N 22 28 12 15 1000.4 1000.7 1.0
26/09:30pm 5.2 0.1 4.0 92 0.5 N 20 28 11 15 1000.9 1001.2 0.6
26/09:13pm 5.2 0.3 3.9 91 0.6 N 19 30 10 16 1001.1 1001.4 0.6
26/09:11pm 5.2 0.1 3.9 91 0.6 N 20 30 11 16 1001.0 1001.3 0.6
26/09:00pm 5.2 -0.3 3.9 91 0.6 N 22 30 12 16 1001.2 1001.5 0.6
26/08:45pm 5.2 0.1 4.2 93 0.4 N 20 26 11 14 1001.2 1001.5 0.6
26/08:44pm 5.2 0.1 4.3 94 0.4 N 20 26 11 14 1001.2 1001.5 0.6
26/08:30pm 5.1 0.2 4.2 94 0.4 N 19 26 10 14 1001.3 1001.6 0.6
26/08:27pm 5.0 0.1 4.1 94 0.4 N 19 24 10 13 1001.3 1001.6 0.6
26/08:00pm 4.9 0.3 3.9 93 0.4 N 17 20 9 11 1001.6 1001.9 0.6
26/07:30pm 5.0 0.8 3.7 91 0.5 NNW 15 19 8 10 1001.8 1002.1 0.4
26/07:00pm 5.2 -0.1 3.2 87 0.8 NW 20 30 11 16 1001.7 1002.0 0.2
26/06:30pm 5.9 0.5 2.4 78 1.4 NNW 20 28 11 15 1001.6 1001.9 0.0
26/06:00pm 6.1 -0.9 1.8 74 1.8 NW 28 43 15 23 1001.4 1001.7 0.0
26/05:30pm 6.0 -0.6 2.1 76 1.6 NNW 26 33 14 18 1001.4 1001.7 0.0
26/05:00pm 6.1 -0.9 2.0 75 1.7 NNW 28 35 15 19 1001.4 1001.7 0.0
26/04:30pm 6.6 -0.8 1.7 71 2.0 NW 30 41 16 22 1001.3 1001.6 0.0
26/04:00pm 7.0 0.0 1.9 70 2.1 NNW 28 35 15 19 1001.5 1001.8 0.0
26/03:30pm 7.4 -0.4 1.9 68 2.3 NNW 32 41 17 22 1001.7 1002.0 0.0
26/03:06pm 7.9 -0.4 2.0 66 2.5 NW 35 54 19 29 1001.7 1002.0 0.0
26/03:00pm 8.3 -0.4 1.7 63 2.8 NW 37 54 20 29 1001.7 1002.0 0.0
26/02:57pm 8.1 -0.3 1.3 62 2.8 NW 35 54 19 29 1001.7 1002.0 0.0
26/02:30pm 7.6 -0.7 1.9 67 2.4 NNW 35 48 19 26 1001.7 1002.0 0.0
26/02:00pm 7.4 -1.0 1.3 65 2.5 NW 35 48 19 26 1001.7 1002.0 0.0

Other Formats:

Comma delimited format used in spreadsheet applications
http://www.bom.gov.au/fwo/IDT60801/IDT60801.95966.axf

JavaScript Object Notation format (JSON) in row-major order
http://www.bom.gov.au/fwo/IDT60801/IDT60801.95966.json